TNO1122 KLRD-KMSY
Flight info
| Callsign | TNO1122 |
|---|---|
| Flight time | 1h 51m |
| Altitude | 22998 |
| Route | MEEYA LMEDA VUH/N0313F170 T466 SBI V198 TBD OLEDD4 |
| Aircraft | B350/L-SBGRW/S |
Departure
| Time | 2026-05-07 09:57 |
|---|---|
| Airport | Laredo International Airport (KLRD) |
Arrival
| Time | 2026-05-07 11:48 |
|---|---|
| Airport | Louis Armstrong New Orleans International Airport (KMSY) |
| Time | Latitude | Longitude | Altitude | Speed | Heading |
|---|---|---|---|---|---|
| 2026-05-07 09:46 | 27.54004 | -99.46733 | 513 ft | 0 kts | 273° |
| 2026-05-07 09:51 | 27.54004 | -99.46734 | 513 ft | 0 kts | 273° |
| 2026-05-07 09:52 | 27.54005 | -99.46734 | 513 ft | 0 kts | 273° |
| 2026-05-07 09:52 | 27.54004 | -99.46733 | 513 ft | 1 kts | 273° |
| 2026-05-07 09:53 | 27.54005 | -99.46720 | 513 ft | 2 kts | 253° |
| 2026-05-07 09:53 | 27.54016 | -99.46703 | 513 ft | 3 kts | 217° |
| 2026-05-07 09:53 | 27.54031 | -99.46695 | 513 ft | 2 kts | 189° |
| 2026-05-07 09:53 | 27.53987 | -99.46657 | 513 ft | 7 kts | 134° |
| 2026-05-07 09:54 | 27.53998 | -99.46621 | 513 ft | 10 kts | 29° |
| 2026-05-07 09:54 | 27.54067 | -99.46592 | 513 ft | 8 kts | 15° |
| 2026-05-07 09:54 | 27.54139 | -99.46564 | 513 ft | 11 kts | 59° |
| 2026-05-07 09:54 | 27.54137 | -99.46472 | 513 ft | 13 kts | 131° |
| 2026-05-07 09:55 | 27.54048 | -99.46469 | 513 ft | 11 kts | 184° |
| 2026-05-07 09:55 | 27.53932 | -99.46474 | 513 ft | 28 kts | 182° |
| 2026-05-07 09:55 | 27.53757 | -99.46481 | 513 ft | 26 kts | 186° |
| 2026-05-07 09:55 | 27.53588 | -99.46493 | 513 ft | 23 kts | 180° |
| 2026-05-07 09:56 | 27.53453 | -99.46497 | 513 ft | 16 kts | 181° |
| 2026-05-07 09:56 | 27.53327 | -99.46507 | 513 ft | 16 kts | 184° |
| 2026-05-07 09:56 | 27.53242 | -99.46499 | 513 ft | 9 kts | 133° |
| 2026-05-07 09:56 | 27.53254 | -99.46410 | 513 ft | 15 kts | 65° |
| 2026-05-07 09:57 | 27.53354 | -99.46355 | 513 ft | 33 kts | 4° |
| 2026-05-07 09:57 | 27.53989 | -99.46324 | 513 ft | 137 kts | 4° |
| 2026-05-07 09:57 | 27.55054 | -99.46273 | 795 ft | 162 kts | 4° |
| 2026-05-07 09:57 | 27.56205 | -99.46121 | 1170 ft | 170 kts | 19° |
| 2026-05-07 09:58 | 27.57106 | -99.45274 | 1522 ft | 178 kts | 58° |
| 2026-05-07 09:58 | 27.57358 | -99.43880 | 1911 ft | 193 kts | 93° |
| 2026-05-07 09:58 | 27.56956 | -99.42389 | 2319 ft | 201 kts | 110° |
| 2026-05-07 09:58 | 27.56371 | -99.40956 | 2700 ft | 204 kts | 113° |
| 2026-05-07 09:59 | 27.55756 | -99.39502 | 3089 ft | 205 kts | 112° |
| 2026-05-07 09:59 | 27.55228 | -99.38018 | 3475 ft | 207 kts | 107° |
| 2026-05-07 09:59 | 27.54836 | -99.36445 | 3864 ft | 208 kts | 102° |
| 2026-05-07 09:59 | 27.54576 | -99.34851 | 4236 ft | 210 kts | 97° |
| 2026-05-07 10:00 | 27.54406 | -99.33205 | 4627 ft | 211 kts | 95° |
| 2026-05-07 10:00 | 27.54298 | -99.31545 | 4998 ft | 213 kts | 93° |
| 2026-05-07 10:00 | 27.54226 | -99.29866 | 5377 ft | 214 kts | 92° |
| 2026-05-07 10:00 | 27.54177 | -99.28202 | 5751 ft | 215 kts | 92° |
| 2026-05-07 10:01 | 27.54137 | -99.26494 | 6128 ft | 217 kts | 92° |
| 2026-05-07 10:01 | 27.54105 | -99.24809 | 6500 ft | 218 kts | 92° |
| 2026-05-07 10:01 | 27.54076 | -99.23106 | 6872 ft | 219 kts | 91° |
| 2026-05-07 10:01 | 27.54048 | -99.21386 | 7251 ft | 220 kts | 91° |
| 2026-05-07 10:02 | 27.54020 | -99.19653 | 7638 ft | 221 kts | 91° |
| 2026-05-07 10:02 | 27.53993 | -99.17923 | 8012 ft | 222 kts | 91° |
| 2026-05-07 10:02 | 27.54015 | -99.16172 | 8386 ft | 224 kts | 84° |
| 2026-05-07 10:02 | 27.54362 | -99.14462 | 8783 ft | 224 kts | 73° |
| 2026-05-07 10:03 | 27.54895 | -99.12797 | 9162 ft | 226 kts | 69° |
| 2026-05-07 10:03 | 27.55509 | -99.11159 | 9538 ft | 228 kts | 67° |
| 2026-05-07 10:03 | 27.56156 | -99.09544 | 9909 ft | 229 kts | 66° |
| 2026-05-07 10:03 | 27.56834 | -99.07903 | 10285 ft | 232 kts | 66° |
| 2026-05-07 10:04 | 27.57527 | -99.06254 | 10660 ft | 234 kts | 66° |
| 2026-05-07 10:04 | 27.58233 | -99.04588 | 11061 ft | 236 kts | 66° |
| 2026-05-07 10:04 | 27.58947 | -99.02914 | 11464 ft | 238 kts | 66° |
| 2026-05-07 10:04 | 27.59671 | -99.01219 | 11859 ft | 241 kts | 66° |
| 2026-05-07 10:05 | 27.60394 | -98.99531 | 12246 ft | 244 kts | 66° |
| 2026-05-07 10:05 | 27.61135 | -98.97801 | 12617 ft | 247 kts | 66° |
| 2026-05-07 10:05 | 27.61888 | -98.96045 | 12982 ft | 250 kts | 66° |
| 2026-05-07 10:05 | 27.62648 | -98.94272 | 13361 ft | 252 kts | 66° |
| 2026-05-07 10:06 | 27.63416 | -98.92483 | 13732 ft | 254 kts | 66° |
| 2026-05-07 10:06 | 27.64194 | -98.90671 | 14097 ft | 257 kts | 66° |
| 2026-05-07 10:06 | 27.64973 | -98.88856 | 14471 ft | 258 kts | 66° |
| 2026-05-07 10:06 | 27.65761 | -98.87017 | 14844 ft | 260 kts | 66° |
| 2026-05-07 10:07 | 27.66551 | -98.85172 | 15217 ft | 262 kts | 66° |
| 2026-05-07 10:07 | 27.67348 | -98.83311 | 15593 ft | 264 kts | 66° |
| 2026-05-07 10:07 | 27.68152 | -98.81434 | 15968 ft | 267 kts | 66° |
| 2026-05-07 10:07 | 27.68953 | -98.79563 | 16336 ft | 269 kts | 66° |
| 2026-05-07 10:08 | 27.69769 | -98.77657 | 16699 ft | 271 kts | 66° |
| 2026-05-07 10:08 | 27.70594 | -98.75729 | 17075 ft | 273 kts | 67° |
| 2026-05-07 10:08 | 27.71421 | -98.73793 | 17450 ft | 275 kts | 66° |
| 2026-05-07 10:08 | 27.72255 | -98.71843 | 17825 ft | 277 kts | 67° |
| 2026-05-07 10:09 | 27.73098 | -98.69869 | 18203 ft | 279 kts | 67° |
| 2026-05-07 10:09 | 27.73932 | -98.67914 | 18574 ft | 280 kts | 66° |
| 2026-05-07 10:09 | 27.74787 | -98.65909 | 18948 ft | 282 kts | 66° |
| 2026-05-07 10:09 | 27.75633 | -98.63922 | 19269 ft | 285 kts | 66° |
| 2026-05-07 10:10 | 27.76502 | -98.61882 | 19532 ft | 289 kts | 66° |
| 2026-05-07 10:10 | 27.77381 | -98.59819 | 19784 ft | 292 kts | 66° |
| 2026-05-07 10:10 | 27.78245 | -98.57789 | 20030 ft | 294 kts | 66° |
| 2026-05-07 10:10 | 27.79124 | -98.55724 | 20278 ft | 295 kts | 66° |
| 2026-05-07 10:11 | 27.80021 | -98.53617 | 20531 ft | 296 kts | 66° |
| 2026-05-07 10:11 | 27.80907 | -98.51535 | 20778 ft | 297 kts | 65° |
| 2026-05-07 10:11 | 27.81804 | -98.49425 | 21029 ft | 298 kts | 65° |
| 2026-05-07 10:11 | 27.82705 | -98.47304 | 21280 ft | 298 kts | 65° |
| 2026-05-07 10:12 | 27.83593 | -98.45213 | 21527 ft | 299 kts | 65° |
| 2026-05-07 10:12 | 27.84493 | -98.43093 | 21777 ft | 300 kts | 65° |
| 2026-05-07 10:12 | 27.85394 | -98.40966 | 22027 ft | 300 kts | 65° |
| 2026-05-07 10:12 | 27.86300 | -98.38830 | 22278 ft | 301 kts | 65° |
| 2026-05-07 10:13 | 27.87206 | -98.36691 | 22528 ft | 302 kts | 65° |
| 2026-05-07 10:13 | 27.88117 | -98.34541 | 22778 ft | 303 kts | 65° |
| 2026-05-07 10:13 | 27.89028 | -98.32387 | 23028 ft | 304 kts | 65° |
| 2026-05-07 10:13 | 27.89944 | -98.30222 | 23278 ft | 305 kts | 65° |
| 2026-05-07 10:14 | 27.90864 | -98.28045 | 23529 ft | 307 kts | 64° |
| 2026-05-07 10:14 | 27.91786 | -98.25863 | 23779 ft | 308 kts | 64° |
| 2026-05-07 10:14 | 27.92711 | -98.23672 | 24030 ft | 309 kts | 64° |
| 2026-05-07 10:14 | 27.93627 | -98.21501 | 24277 ft | 310 kts | 64° |
| 2026-05-07 10:15 | 27.94557 | -98.19298 | 24528 ft | 310 kts | 64° |
| 2026-05-07 10:15 | 27.95488 | -98.17091 | 24777 ft | 311 kts | 64° |
| 2026-05-07 10:15 | 27.96421 | -98.14875 | 25028 ft | 312 kts | 64° |
| 2026-05-07 10:15 | 27.97356 | -98.12658 | 25278 ft | 313 kts | 64° |
| 2026-05-07 10:16 | 27.98290 | -98.10437 | 25528 ft | 313 kts | 64° |
| 2026-05-07 10:16 | 27.99228 | -98.08209 | 25778 ft | 314 kts | 64° |
| 2026-05-07 10:16 | 28.00170 | -98.05970 | 26029 ft | 315 kts | 64° |
| 2026-05-07 10:16 | 28.01113 | -98.03724 | 26280 ft | 316 kts | 64° |
| 2026-05-07 10:17 | 28.02057 | -98.01478 | 26530 ft | 316 kts | 64° |
| 2026-05-07 10:17 | 28.03001 | -97.99227 | 26767 ft | 318 kts | 64° |
| 2026-05-07 10:17 | 28.03956 | -97.96951 | 26912 ft | 322 kts | 64° |
| 2026-05-07 10:17 | 28.04928 | -97.94632 | 26970 ft | 328 kts | 64° |
| 2026-05-07 10:18 | 28.05915 | -97.92276 | 26980 ft | 333 kts | 64° |
| 2026-05-07 10:18 | 28.06902 | -97.89918 | 26979 ft | 338 kts | 64° |
| 2026-05-07 10:18 | 28.07915 | -97.87498 | 26978 ft | 341 kts | 64° |
| 2026-05-07 10:18 | 28.08935 | -97.85060 | 26977 ft | 343 kts | 64° |
| 2026-05-07 10:19 | 28.09959 | -97.82609 | 26976 ft | 345 kts | 64° |
| 2026-05-07 10:19 | 28.10986 | -97.80151 | 26976 ft | 346 kts | 64° |
| 2026-05-07 10:19 | 28.12019 | -97.77677 | 26976 ft | 347 kts | 64° |
| 2026-05-07 10:19 | 28.13050 | -97.75205 | 26977 ft | 347 kts | 64° |
| 2026-05-07 10:20 | 28.14086 | -97.72720 | 26977 ft | 347 kts | 64° |
| 2026-05-07 10:20 | 28.15115 | -97.70249 | 26977 ft | 347 kts | 65° |
| 2026-05-07 10:20 | 28.16131 | -97.67811 | 26977 ft | 346 kts | 65° |
| 2026-05-07 10:20 | 28.17159 | -97.65339 | 26975 ft | 346 kts | 65° |
| 2026-05-07 10:21 | 28.18185 | -97.62871 | 26975 ft | 346 kts | 65° |
| 2026-05-07 10:21 | 28.19212 | -97.60401 | 26974 ft | 346 kts | 65° |
| 2026-05-07 10:21 | 28.20237 | -97.57932 | 26974 ft | 346 kts | 65° |
| 2026-05-07 10:21 | 28.21262 | -97.55463 | 26974 ft | 346 kts | 65° |
| 2026-05-07 10:22 | 28.22286 | -97.52995 | 26974 ft | 346 kts | 65° |
| 2026-05-07 10:22 | 28.23307 | -97.50530 | 26974 ft | 346 kts | 65° |
| 2026-05-07 10:22 | 28.24330 | -97.48061 | 26973 ft | 344 kts | 65° |
| 2026-05-07 10:22 | 28.25327 | -97.45652 | 26968 ft | 328 kts | 65° |
| 2026-05-07 10:23 | 28.26266 | -97.43383 | 26964 ft | 313 kts | 65° |
| 2026-05-07 10:23 | 28.27180 | -97.41171 | 26965 ft | 307 kts | 65° |
| 2026-05-07 10:23 | 28.28082 | -97.38988 | 26968 ft | 303 kts | 65° |
| 2026-05-07 10:23 | 28.28972 | -97.36832 | 26971 ft | 301 kts | 65° |
| 2026-05-07 10:24 | 28.29859 | -97.34683 | 26972 ft | 301 kts | 65° |
| 2026-05-07 10:24 | 28.30747 | -97.32530 | 26973 ft | 300 kts | 65° |
| 2026-05-07 10:24 | 28.31631 | -97.30386 | 26973 ft | 300 kts | 65° |
| 2026-05-07 10:24 | 28.32512 | -97.28246 | 26974 ft | 299 kts | 65° |
| 2026-05-07 10:25 | 28.33395 | -97.26104 | 26974 ft | 299 kts | 65° |
| 2026-05-07 10:25 | 28.34276 | -97.23963 | 26974 ft | 299 kts | 65° |
| 2026-05-07 10:25 | 28.35148 | -97.21844 | 26974 ft | 299 kts | 65° |
| 2026-05-07 10:25 | 28.36028 | -97.19703 | 26973 ft | 299 kts | 65° |
| 2026-05-07 10:26 | 28.36908 | -97.17562 | 26973 ft | 299 kts | 65° |
| 2026-05-07 10:26 | 28.37788 | -97.15419 | 26973 ft | 299 kts | 65° |
| 2026-05-07 10:26 | 28.38668 | -97.13276 | 26974 ft | 299 kts | 65° |
| 2026-05-07 10:26 | 28.39547 | -97.11134 | 26972 ft | 299 kts | 65° |
| 2026-05-07 10:27 | 28.40424 | -97.08995 | 26970 ft | 299 kts | 65° |
| 2026-05-07 10:27 | 28.41305 | -97.06844 | 26969 ft | 299 kts | 65° |
| 2026-05-07 10:27 | 28.42183 | -97.04701 | 26969 ft | 299 kts | 65° |
| 2026-05-07 10:27 | 28.43061 | -97.02558 | 26970 ft | 299 kts | 65° |
| 2026-05-07 10:28 | 28.43939 | -97.00410 | 26970 ft | 299 kts | 65° |
| 2026-05-07 10:28 | 28.44815 | -96.98266 | 26971 ft | 299 kts | 65° |
| 2026-05-07 10:28 | 28.45689 | -96.96116 | 26971 ft | 299 kts | 65° |
| 2026-05-07 10:28 | 28.46555 | -96.93968 | 26971 ft | 299 kts | 65° |
| 2026-05-07 10:29 | 28.47418 | -96.91817 | 26972 ft | 299 kts | 65° |
| 2026-05-07 10:29 | 28.48280 | -96.89666 | 26975 ft | 299 kts | 65° |
| 2026-05-07 10:29 | 28.49129 | -96.87538 | 26975 ft | 299 kts | 65° |
| 2026-05-07 10:30 | 28.50854 | -96.83210 | 26975 ft | 300 kts | 65° |
| 2026-05-07 10:30 | 28.51715 | -96.81046 | 26975 ft | 300 kts | 65° |
| 2026-05-07 10:30 | 28.52575 | -96.78882 | 26974 ft | 300 kts | 65° |
| 2026-05-07 10:30 | 28.53436 | -96.76715 | 26974 ft | 300 kts | 65° |
| 2026-05-07 10:31 | 28.54294 | -96.74553 | 26973 ft | 300 kts | 65° |
| 2026-05-07 10:31 | 28.55154 | -96.72385 | 26971 ft | 300 kts | 65° |
| 2026-05-07 10:31 | 28.56001 | -96.70248 | 26972 ft | 300 kts | 65° |
| 2026-05-07 10:31 | 28.56582 | -96.68784 | 26971 ft | 300 kts | 65° |
| 2026-05-07 10:32 | 28.57439 | -96.66618 | 26970 ft | 300 kts | 65° |
| 2026-05-07 10:32 | 28.58295 | -96.64453 | 26969 ft | 300 kts | 65° |
| 2026-05-07 10:32 | 28.59430 | -96.61582 | 26969 ft | 300 kts | 66° |
| 2026-05-07 10:32 | 28.60286 | -96.59415 | 26969 ft | 300 kts | 66° |
| 2026-05-07 10:33 | 28.61143 | -96.57246 | 26969 ft | 300 kts | 66° |
| 2026-05-07 10:33 | 28.61999 | -96.55077 | 26969 ft | 300 kts | 66° |
| 2026-05-07 10:33 | 28.62576 | -96.53614 | 26969 ft | 300 kts | 66° |
| 2026-05-07 10:33 | 28.63430 | -96.51447 | 26969 ft | 300 kts | 65° |
| 2026-05-07 10:34 | 28.64286 | -96.49273 | 26970 ft | 300 kts | 65° |
| 2026-05-07 10:34 | 28.65140 | -96.47105 | 26970 ft | 300 kts | 65° |
| 2026-05-07 10:34 | 28.65985 | -96.44957 | 26971 ft | 300 kts | 65° |
| 2026-05-07 10:34 | 28.66839 | -96.42786 | 26972 ft | 300 kts | 65° |
| 2026-05-07 10:35 | 28.67694 | -96.40614 | 26972 ft | 300 kts | 65° |
| 2026-05-07 10:35 | 28.68546 | -96.38443 | 26971 ft | 300 kts | 65° |
| 2026-05-07 10:35 | 28.69400 | -96.36269 | 26971 ft | 300 kts | 65° |
| 2026-05-07 10:35 | 28.70253 | -96.34095 | 26970 ft | 300 kts | 65° |
| 2026-05-07 10:36 | 28.71105 | -96.31925 | 26970 ft | 300 kts | 65° |
| 2026-05-07 10:36 | 28.71957 | -96.29750 | 26969 ft | 300 kts | 65° |
| 2026-05-07 10:36 | 28.72810 | -96.27575 | 26969 ft | 300 kts | 65° |
| 2026-05-07 10:36 | 28.73660 | -96.25403 | 26969 ft | 300 kts | 65° |
| 2026-05-07 10:37 | 28.74510 | -96.23231 | 26969 ft | 300 kts | 65° |
| 2026-05-07 10:37 | 28.75360 | -96.21058 | 26969 ft | 300 kts | 66° |
| 2026-05-07 10:37 | 28.76212 | -96.18880 | 26969 ft | 300 kts | 66° |
| 2026-05-07 10:37 | 28.77053 | -96.16725 | 26969 ft | 300 kts | 66° |
| 2026-05-07 10:38 | 28.77903 | -96.14550 | 26969 ft | 300 kts | 66° |
| 2026-05-07 10:38 | 28.78751 | -96.12376 | 26969 ft | 300 kts | 66° |
| 2026-05-07 10:38 | 28.79599 | -96.10201 | 26968 ft | 300 kts | 66° |
| 2026-05-07 10:38 | 28.80449 | -96.08021 | 26968 ft | 300 kts | 66° |
| 2026-05-07 10:39 | 28.81297 | -96.05844 | 26969 ft | 300 kts | 66° |
| 2026-05-07 10:39 | 28.82143 | -96.03669 | 26968 ft | 300 kts | 66° |
| 2026-05-07 10:39 | 28.82991 | -96.01492 | 26967 ft | 300 kts | 66° |
| 2026-05-07 10:39 | 28.83838 | -95.99314 | 26966 ft | 300 kts | 66° |
| 2026-05-07 10:40 | 28.84684 | -95.97136 | 26964 ft | 300 kts | 66° |
| 2026-05-07 10:40 | 28.85531 | -95.94957 | 26962 ft | 301 kts | 66° |
| 2026-05-07 10:40 | 28.86378 | -95.92775 | 26960 ft | 301 kts | 66° |
| 2026-05-07 10:40 | 28.87224 | -95.90593 | 26957 ft | 301 kts | 66° |
| 2026-05-07 10:41 | 28.88072 | -95.88408 | 26956 ft | 301 kts | 66° |
| 2026-05-07 10:41 | 28.88920 | -95.86219 | 26953 ft | 301 kts | 66° |
| 2026-05-07 10:41 | 28.89766 | -95.84034 | 26952 ft | 301 kts | 66° |
| 2026-05-07 10:41 | 28.90613 | -95.81847 | 26952 ft | 301 kts | 66° |
| 2026-05-07 10:42 | 28.91449 | -95.79686 | 26952 ft | 301 kts | 66° |
| 2026-05-07 10:42 | 28.92296 | -95.77495 | 26951 ft | 301 kts | 66° |
| 2026-05-07 10:42 | 28.93144 | -95.75299 | 26953 ft | 301 kts | 66° |
| 2026-05-07 10:42 | 28.93989 | -95.73111 | 26955 ft | 301 kts | 66° |
| 2026-05-07 10:43 | 28.94834 | -95.70922 | 26956 ft | 301 kts | 66° |
| 2026-05-07 10:43 | 28.95679 | -95.68731 | 26958 ft | 301 kts | 66° |
| 2026-05-07 10:43 | 28.96524 | -95.66541 | 26959 ft | 301 kts | 66° |
| 2026-05-07 10:43 | 28.97367 | -95.64352 | 26963 ft | 301 kts | 66° |
| 2026-05-07 10:44 | 28.98204 | -95.62180 | 26966 ft | 301 kts | 66° |
| 2026-05-07 10:44 | 28.99054 | -95.59971 | 26971 ft | 305 kts | 66° |
| 2026-05-07 10:44 | 28.99917 | -95.57727 | 26974 ft | 308 kts | 66° |
| 2026-05-07 10:44 | 29.00776 | -95.55495 | 26974 ft | 310 kts | 66° |
| 2026-05-07 10:45 | 29.01648 | -95.53225 | 26975 ft | 311 kts | 66° |
| 2026-05-07 10:45 | 29.02510 | -95.50979 | 26976 ft | 311 kts | 66° |
| 2026-05-07 10:45 | 29.03388 | -95.48692 | 26977 ft | 312 kts | 66° |
| 2026-05-07 10:45 | 29.04250 | -95.46444 | 26978 ft | 313 kts | 66° |
| 2026-05-07 10:46 | 29.05122 | -95.44168 | 26978 ft | 313 kts | 66° |
| 2026-05-07 10:46 | 29.05994 | -95.41890 | 26979 ft | 313 kts | 66° |
| 2026-05-07 10:46 | 29.06872 | -95.39598 | 26979 ft | 313 kts | 66° |
| 2026-05-07 10:46 | 29.07744 | -95.37318 | 26979 ft | 313 kts | 66° |
| 2026-05-07 10:47 | 29.08616 | -95.35036 | 26979 ft | 313 kts | 66° |
| 2026-05-07 10:47 | 29.09487 | -95.32756 | 26979 ft | 313 kts | 66° |
| 2026-05-07 10:47 | 29.10359 | -95.30472 | 26979 ft | 313 kts | 66° |
| 2026-05-07 10:47 | 29.11230 | -95.28189 | 26979 ft | 313 kts | 66° |
| 2026-05-07 10:48 | 29.12103 | -95.25901 | 26980 ft | 313 kts | 66° |
| 2026-05-07 10:48 | 29.12973 | -95.23617 | 26983 ft | 313 kts | 66° |
| 2026-05-07 10:48 | 29.13842 | -95.21336 | 26983 ft | 313 kts | 66° |
| 2026-05-07 10:48 | 29.14713 | -95.19048 | 26983 ft | 313 kts | 66° |
| 2026-05-07 10:49 | 29.15573 | -95.16788 | 26983 ft | 313 kts | 66° |
| 2026-05-07 10:49 | 29.16442 | -95.14501 | 26983 ft | 313 kts | 66° |
| 2026-05-07 10:49 | 29.17310 | -95.12215 | 26983 ft | 313 kts | 66° |
| 2026-05-07 10:49 | 29.18179 | -95.09927 | 26983 ft | 313 kts | 66° |
| 2026-05-07 10:50 | 29.19047 | -95.07640 | 26983 ft | 313 kts | 66° |
| 2026-05-07 10:50 | 29.19913 | -95.05354 | 26982 ft | 313 kts | 66° |
| 2026-05-07 10:50 | 29.20783 | -95.03060 | 26982 ft | 314 kts | 66° |
| 2026-05-07 10:50 | 29.21651 | -95.00767 | 26982 ft | 314 kts | 66° |
| 2026-05-07 10:51 | 29.22519 | -94.98473 | 26981 ft | 314 kts | 66° |
| 2026-05-07 10:51 | 29.23388 | -94.96176 | 26981 ft | 314 kts | 66° |
| 2026-05-07 10:51 | 29.24256 | -94.93878 | 26980 ft | 314 kts | 66° |
| 2026-05-07 10:51 | 29.25125 | -94.91576 | 26980 ft | 314 kts | 66° |
| 2026-05-07 10:52 | 29.26041 | -94.89303 | 26979 ft | 314 kts | 63° |
| 2026-05-07 10:52 | 29.27020 | -94.87068 | 26979 ft | 314 kts | 61° |
| 2026-05-07 10:52 | 29.28043 | -94.84857 | 26979 ft | 314 kts | 60° |
| 2026-05-07 10:52 | 29.29094 | -94.82667 | 26979 ft | 314 kts | 59° |
| 2026-05-07 10:53 | 29.30151 | -94.80516 | 26979 ft | 314 kts | 58° |
| 2026-05-07 10:53 | 29.31234 | -94.78340 | 26979 ft | 314 kts | 58° |
| 2026-05-07 10:53 | 29.32323 | -94.76172 | 26979 ft | 314 kts | 58° |
| 2026-05-07 10:53 | 29.33418 | -94.74004 | 26979 ft | 314 kts | 58° |
| 2026-05-07 10:54 | 29.34516 | -94.71832 | 26979 ft | 314 kts | 58° |
| 2026-05-07 10:54 | 29.35614 | -94.69664 | 26979 ft | 315 kts | 58° |
| 2026-05-07 10:54 | 29.36714 | -94.67491 | 26979 ft | 315 kts | 58° |
| 2026-05-07 10:54 | 29.37812 | -94.65321 | 26979 ft | 315 kts | 58° |
| 2026-05-07 10:55 | 29.38912 | -94.63146 | 26979 ft | 315 kts | 58° |
| 2026-05-07 10:55 | 29.39997 | -94.61001 | 26979 ft | 315 kts | 58° |
| 2026-05-07 10:55 | 29.41098 | -94.58823 | 26980 ft | 315 kts | 58° |
| 2026-05-07 10:55 | 29.42199 | -94.56643 | 26980 ft | 315 kts | 58° |
| 2026-05-07 10:56 | 29.43298 | -94.54463 | 26980 ft | 316 kts | 58° |
| 2026-05-07 10:56 | 29.44400 | -94.52278 | 26981 ft | 316 kts | 58° |
| 2026-05-07 10:56 | 29.45498 | -94.50099 | 26981 ft | 316 kts | 58° |
| 2026-05-07 10:56 | 29.46598 | -94.47914 | 26982 ft | 316 kts | 58° |
| 2026-05-07 10:57 | 29.47699 | -94.45727 | 26982 ft | 316 kts | 58° |
| 2026-05-07 10:57 | 29.48802 | -94.43535 | 26981 ft | 317 kts | 58° |
| 2026-05-07 10:57 | 29.49900 | -94.41349 | 26980 ft | 317 kts | 58° |
| 2026-05-07 10:57 | 29.51002 | -94.39157 | 26979 ft | 317 kts | 58° |
| 2026-05-07 10:58 | 29.52089 | -94.36990 | 26980 ft | 317 kts | 58° |
| 2026-05-07 10:58 | 29.53191 | -94.34796 | 26981 ft | 317 kts | 58° |
| 2026-05-07 10:58 | 29.54296 | -94.32592 | 26985 ft | 317 kts | 58° |
| 2026-05-07 10:58 | 29.55396 | -94.30396 | 26987 ft | 317 kts | 58° |
| 2026-05-07 10:59 | 29.56495 | -94.28203 | 26988 ft | 318 kts | 58° |
| 2026-05-07 10:59 | 29.57600 | -94.25995 | 26988 ft | 318 kts | 58° |
| 2026-05-07 10:59 | 29.58702 | -94.23793 | 26989 ft | 318 kts | 58° |
| 2026-05-07 10:59 | 29.59805 | -94.21588 | 26989 ft | 318 kts | 58° |
| 2026-05-07 11:00 | 29.60909 | -94.19378 | 26989 ft | 318 kts | 58° |
| 2026-05-07 11:00 | 29.62012 | -94.17171 | 26991 ft | 318 kts | 58° |
| 2026-05-07 11:00 | 29.63114 | -94.14962 | 26993 ft | 319 kts | 58° |
| 2026-05-07 11:00 | 29.64206 | -94.12773 | 26995 ft | 319 kts | 58° |
| 2026-05-07 11:01 | 29.65311 | -94.10558 | 26995 ft | 319 kts | 58° |
| 2026-05-07 11:01 | 29.66415 | -94.08338 | 26995 ft | 320 kts | 58° |
| 2026-05-07 11:01 | 29.67306 | -94.06000 | 26991 ft | 320 kts | 73° |
| 2026-05-07 11:01 | 29.67844 | -94.03523 | 26994 ft | 318 kts | 82° |
| 2026-05-07 11:02 | 29.68161 | -94.01011 | 26998 ft | 317 kts | 88° |
| 2026-05-07 11:02 | 29.68344 | -93.98487 | 27002 ft | 316 kts | 91° |
| 2026-05-07 11:02 | 29.68444 | -93.95966 | 27003 ft | 315 kts | 93° |
| 2026-05-07 11:02 | 29.68495 | -93.93451 | 27004 ft | 315 kts | 95° |
| 2026-05-07 11:03 | 29.68516 | -93.90930 | 27004 ft | 315 kts | 95° |
| 2026-05-07 11:03 | 29.68518 | -93.88416 | 27005 ft | 314 kts | 96° |
| 2026-05-07 11:03 | 29.68509 | -93.85902 | 27006 ft | 314 kts | 96° |
| 2026-05-07 11:03 | 29.68494 | -93.83388 | 27007 ft | 314 kts | 96° |
| 2026-05-07 11:04 | 29.68474 | -93.80874 | 27008 ft | 314 kts | 97° |
| 2026-05-07 11:04 | 29.68452 | -93.78358 | 27007 ft | 314 kts | 97° |
| 2026-05-07 11:04 | 29.68428 | -93.75868 | 27002 ft | 314 kts | 97° |
| 2026-05-07 11:04 | 29.68402 | -93.73344 | 27007 ft | 314 kts | 97° |
| 2026-05-07 11:05 | 29.68377 | -93.70856 | 27021 ft | 313 kts | 97° |
| 2026-05-07 11:05 | 29.68351 | -93.68349 | 27028 ft | 313 kts | 97° |
| 2026-05-07 11:05 | 29.68324 | -93.65850 | 27030 ft | 313 kts | 97° |
| 2026-05-07 11:05 | 29.68296 | -93.63349 | 27031 ft | 313 kts | 97° |
| 2026-05-07 11:06 | 29.68269 | -93.60846 | 27031 ft | 313 kts | 97° |
| 2026-05-07 11:06 | 29.68241 | -93.58373 | 27030 ft | 313 kts | 97° |
| 2026-05-07 11:06 | 29.68212 | -93.55855 | 27030 ft | 313 kts | 97° |
| 2026-05-07 11:06 | 29.68183 | -93.53375 | 27030 ft | 313 kts | 97° |
| 2026-05-07 11:07 | 29.68153 | -93.50861 | 27030 ft | 313 kts | 96° |
| 2026-05-07 11:07 | 29.68123 | -93.48353 | 27030 ft | 313 kts | 97° |
| 2026-05-07 11:07 | 29.68094 | -93.45877 | 27030 ft | 312 kts | 97° |
| 2026-05-07 11:07 | 29.68064 | -93.43373 | 27030 ft | 312 kts | 97° |
| 2026-05-07 11:08 | 29.68033 | -93.40867 | 27030 ft | 312 kts | 97° |
| 2026-05-07 11:08 | 29.68001 | -93.38394 | 27029 ft | 312 kts | 97° |
| 2026-05-07 11:08 | 29.67969 | -93.35888 | 27023 ft | 312 kts | 97° |
| 2026-05-07 11:08 | 29.67936 | -93.33383 | 27013 ft | 312 kts | 97° |
| 2026-05-07 11:09 | 29.67904 | -93.30921 | 27009 ft | 312 kts | 97° |
| 2026-05-07 11:09 | 29.67870 | -93.28415 | 27008 ft | 311 kts | 97° |
| 2026-05-07 11:09 | 29.67836 | -93.25926 | 27007 ft | 311 kts | 97° |
| 2026-05-07 11:09 | 29.67802 | -93.23439 | 27007 ft | 311 kts | 97° |
| 2026-05-07 11:10 | 29.67767 | -93.20950 | 27006 ft | 311 kts | 97° |
| 2026-05-07 11:10 | 29.67732 | -93.18464 | 27003 ft | 311 kts | 97° |
| 2026-05-07 11:10 | 29.67696 | -93.15976 | 27001 ft | 311 kts | 97° |
| 2026-05-07 11:10 | 29.67659 | -93.13492 | 26999 ft | 311 kts | 97° |
| 2026-05-07 11:11 | 29.67623 | -93.11009 | 26996 ft | 311 kts | 97° |
| 2026-05-07 11:11 | 29.67586 | -93.08557 | 26994 ft | 310 kts | 97° |
| 2026-05-07 11:11 | 29.67548 | -93.06070 | 26994 ft | 311 kts | 96° |
| 2026-05-07 11:11 | 29.67510 | -93.03590 | 26994 ft | 311 kts | 97° |
| 2026-05-07 11:12 | 29.67471 | -93.01105 | 26994 ft | 311 kts | 97° |
| 2026-05-07 11:12 | 29.67433 | -92.98620 | 26994 ft | 310 kts | 97° |
| 2026-05-07 11:12 | 29.67394 | -92.96141 | 26993 ft | 310 kts | 97° |
| 2026-05-07 11:12 | 29.67354 | -92.93657 | 26993 ft | 310 kts | 97° |
| 2026-05-07 11:13 | 29.67314 | -92.91182 | 26992 ft | 310 kts | 97° |
| 2026-05-07 11:13 | 29.67273 | -92.88709 | 26993 ft | 310 kts | 97° |
| 2026-05-07 11:13 | 29.67231 | -92.86235 | 27004 ft | 309 kts | 97° |
| 2026-05-07 11:13 | 29.67190 | -92.83759 | 27010 ft | 309 kts | 97° |
| 2026-05-07 11:14 | 29.67148 | -92.81283 | 27012 ft | 309 kts | 97° |
| 2026-05-07 11:14 | 29.67105 | -92.78807 | 27013 ft | 310 kts | 97° |
| 2026-05-07 11:14 | 29.67062 | -92.76330 | 27012 ft | 310 kts | 97° |
| 2026-05-07 11:14 | 29.67019 | -92.73889 | 27012 ft | 310 kts | 97° |
| 2026-05-07 11:15 | 29.66974 | -92.71383 | 27012 ft | 310 kts | 97° |
| 2026-05-07 11:15 | 29.66930 | -92.68937 | 27012 ft | 310 kts | 97° |
| 2026-05-07 11:15 | 29.66877 | -92.66421 | 27009 ft | 311 kts | 96° |
| 2026-05-07 11:15 | 29.66828 | -92.63967 | 27014 ft | 311 kts | 97° |
| 2026-05-07 11:16 | 29.66791 | -92.61479 | 27018 ft | 312 kts | 96° |
| 2026-05-07 11:16 | 29.66757 | -92.58989 | 27026 ft | 311 kts | 96° |
| 2026-05-07 11:16 | 29.66716 | -92.56507 | 27014 ft | 311 kts | 97° |
| 2026-05-07 11:16 | 29.66666 | -92.54024 | 27005 ft | 311 kts | 97° |
| 2026-05-07 11:17 | 29.66613 | -92.51539 | 26997 ft | 311 kts | 97° |
| 2026-05-07 11:17 | 29.66561 | -92.49056 | 27005 ft | 310 kts | 97° |
| 2026-05-07 11:17 | 29.66510 | -92.46573 | 27009 ft | 310 kts | 97° |
| 2026-05-07 11:17 | 29.66459 | -92.44086 | 27010 ft | 310 kts | 97° |
| 2026-05-07 11:18 | 29.66412 | -92.41604 | 27010 ft | 311 kts | 97° |
| 2026-05-07 11:18 | 29.66383 | -92.39147 | 27009 ft | 311 kts | 96° |
| 2026-05-07 11:18 | 29.66371 | -92.36664 | 26938 ft | 309 kts | 96° |
| 2026-05-07 11:18 | 29.66368 | -92.34179 | 26610 ft | 310 kts | 95° |
| 2026-05-07 11:19 | 29.66372 | -92.31722 | 26327 ft | 310 kts | 95° |
| 2026-05-07 11:19 | 29.66381 | -92.29249 | 26050 ft | 309 kts | 95° |
| 2026-05-07 11:19 | 29.66392 | -92.26785 | 25774 ft | 308 kts | 95° |
| 2026-05-07 11:19 | 29.66405 | -92.24323 | 25498 ft | 307 kts | 95° |
| 2026-05-07 11:20 | 29.66418 | -92.21874 | 25223 ft | 306 kts | 95° |
| 2026-05-07 11:20 | 29.66431 | -92.19439 | 24949 ft | 304 kts | 95° |
| 2026-05-07 11:20 | 29.66444 | -92.17007 | 24672 ft | 303 kts | 95° |
| 2026-05-07 11:20 | 29.66456 | -92.14592 | 24397 ft | 302 kts | 95° |
| 2026-05-07 11:21 | 29.66467 | -92.12181 | 24122 ft | 301 kts | 95° |
| 2026-05-07 11:21 | 29.66478 | -92.09761 | 23845 ft | 301 kts | 95° |
| 2026-05-07 11:21 | 29.66488 | -92.07384 | 23573 ft | 300 kts | 95° |
| 2026-05-07 11:21 | 29.66498 | -92.04968 | 23296 ft | 299 kts | 95° |
| 2026-05-07 11:22 | 29.66507 | -92.02603 | 23024 ft | 298 kts | 95° |
| 2026-05-07 11:22 | 29.66516 | -92.00215 | 22748 ft | 297 kts | 95° |
| 2026-05-07 11:22 | 29.66522 | -91.98632 | 22565 ft | 297 kts | 95° |
| 2026-05-07 11:22 | 29.66533 | -91.95486 | 22202 ft | 295 kts | 95° |
| 2026-05-07 11:23 | 29.66538 | -91.93916 | 22020 ft | 295 kts | 95° |
| 2026-05-07 11:23 | 29.66545 | -91.91556 | 21745 ft | 294 kts | 95° |
| 2026-05-07 11:23 | 29.66553 | -91.89195 | 21449 ft | 294 kts | 95° |
| 2026-05-07 11:23 | 29.66559 | -91.86873 | 21116 ft | 294 kts | 94° |
| 2026-05-07 11:24 | 29.66564 | -91.84518 | 20768 ft | 294 kts | 94° |
| 2026-05-07 11:24 | 29.66570 | -91.82166 | 20419 ft | 294 kts | 94° |
| 2026-05-07 11:24 | 29.66575 | -91.79808 | 20066 ft | 295 kts | 94° |
| 2026-05-07 11:24 | 29.66579 | -91.77450 | 19711 ft | 295 kts | 94° |
| 2026-05-07 11:25 | 29.66584 | -91.75094 | 19358 ft | 295 kts | 94° |
| 2026-05-07 11:25 | 29.66587 | -91.72741 | 19008 ft | 294 kts | 94° |
| 2026-05-07 11:25 | 29.66590 | -91.70396 | 18661 ft | 293 kts | 93° |
| 2026-05-07 11:25 | 29.66593 | -91.68054 | 18310 ft | 292 kts | 93° |
| 2026-05-07 11:26 | 29.66595 | -91.65721 | 17969 ft | 291 kts | 93° |
| 2026-05-07 11:26 | 29.66599 | -91.63394 | 17612 ft | 290 kts | 93° |
| 2026-05-07 11:26 | 29.66602 | -91.61081 | 17257 ft | 289 kts | 93° |
| 2026-05-07 11:26 | 29.66606 | -91.58773 | 16911 ft | 288 kts | 93° |
| 2026-05-07 11:27 | 29.66607 | -91.56482 | 16569 ft | 286 kts | 93° |
| 2026-05-07 11:27 | 29.66609 | -91.54231 | 16233 ft | 284 kts | 93° |
| 2026-05-07 11:27 | 29.66611 | -91.51965 | 15917 ft | 282 kts | 93° |
| 2026-05-07 11:27 | 29.66609 | -91.49725 | 15591 ft | 279 kts | 93° |
| 2026-05-07 11:28 | 29.66607 | -91.47495 | 15253 ft | 278 kts | 93° |
| 2026-05-07 11:28 | 29.66609 | -91.45268 | 14912 ft | 276 kts | 93° |
| 2026-05-07 11:28 | 29.66610 | -91.43070 | 14620 ft | 278 kts | 93° |
| 2026-05-07 11:28 | 29.66602 | -91.40832 | 14379 ft | 284 kts | 92° |
| 2026-05-07 11:29 | 29.66602 | -91.38539 | 14041 ft | 290 kts | 93° |
| 2026-05-07 11:29 | 29.66601 | -91.36192 | 13700 ft | 292 kts | 92° |
| 2026-05-07 11:29 | 29.66595 | -91.33890 | 13304 ft | 288 kts | 92° |
| 2026-05-07 11:29 | 29.66593 | -91.31607 | 12879 ft | 282 kts | 92° |
| 2026-05-07 11:30 | 29.66596 | -91.29381 | 12529 ft | 275 kts | 92° |
| 2026-05-07 11:30 | 29.66594 | -91.27192 | 12170 ft | 271 kts | 92° |
| 2026-05-07 11:30 | 29.66590 | -91.25070 | 11814 ft | 267 kts | 92° |
| 2026-05-07 11:30 | 29.66585 | -91.22936 | 11450 ft | 264 kts | 93° |
| 2026-05-07 11:31 | 29.66580 | -91.20830 | 11087 ft | 261 kts | 93° |
| 2026-05-07 11:31 | 29.66573 | -91.18767 | 10720 ft | 259 kts | 93° |
| 2026-05-07 11:31 | 29.66567 | -91.16699 | 10368 ft | 256 kts | 93° |
| 2026-05-07 11:31 | 29.66561 | -91.14664 | 10009 ft | 253 kts | 94° |
| 2026-05-07 11:32 | 29.66549 | -91.10676 | 9310 ft | 248 kts | 94° |
| 2026-05-07 11:32 | 29.66544 | -91.08694 | 8959 ft | 246 kts | 94° |
| 2026-05-07 11:32 | 29.66537 | -91.06734 | 8619 ft | 244 kts | 94° |
| 2026-05-07 11:33 | 29.66527 | -91.05598 | 8415 ft | 243 kts | 94° |
| 2026-05-07 11:33 | 29.66552 | -91.03681 | 8075 ft | 242 kts | 92° |
| 2026-05-07 11:33 | 29.66549 | -91.01747 | 7722 ft | 240 kts | 94° |
| 2026-05-07 11:33 | 29.66526 | -90.99829 | 7384 ft | 239 kts | 94° |
| 2026-05-07 11:34 | 29.66498 | -90.97922 | 7041 ft | 238 kts | 94° |
| 2026-05-07 11:34 | 29.66469 | -90.96026 | 6700 ft | 237 kts | 94° |
| 2026-05-07 11:34 | 29.66439 | -90.94129 | 6353 ft | 237 kts | 94° |
| 2026-05-07 11:34 | 29.66407 | -90.92242 | 5992 ft | 236 kts | 94° |
| 2026-05-07 11:35 | 29.66374 | -90.90359 | 5643 ft | 235 kts | 94° |
| 2026-05-07 11:35 | 29.66342 | -90.88487 | 5293 ft | 234 kts | 94° |
| 2026-05-07 11:35 | 29.66312 | -90.86667 | 5105 ft | 226 kts | 94° |
| 2026-05-07 11:35 | 29.66285 | -90.84894 | 5010 ft | 217 kts | 94° |
| 2026-05-07 11:36 | 29.66265 | -90.83194 | 4998 ft | 208 kts | 94° |
| 2026-05-07 11:36 | 29.66252 | -90.81553 | 5005 ft | 202 kts | 94° |
| 2026-05-07 11:36 | 29.66243 | -90.79954 | 5020 ft | 198 kts | 94° |
| 2026-05-07 11:36 | 29.66235 | -90.78369 | 5005 ft | 197 kts | 94° |
| 2026-05-07 11:37 | 29.66230 | -90.76799 | 4982 ft | 196 kts | 94° |
| 2026-05-07 11:37 | 29.66228 | -90.75240 | 4984 ft | 193 kts | 94° |
| 2026-05-07 11:37 | 29.66227 | -90.73699 | 4999 ft | 192 kts | 94° |
| 2026-05-07 11:37 | 29.66227 | -90.72161 | 5007 ft | 192 kts | 94° |
| 2026-05-07 11:38 | 29.66228 | -90.70620 | 5003 ft | 192 kts | 94° |
| 2026-05-07 11:38 | 29.66231 | -90.69081 | 5004 ft | 193 kts | 94° |
| 2026-05-07 11:38 | 29.66234 | -90.67556 | 5002 ft | 193 kts | 94° |
| 2026-05-07 11:38 | 29.66234 | -90.66007 | 5014 ft | 194 kts | 94° |
| 2026-05-07 11:39 | 29.66235 | -90.64455 | 5007 ft | 194 kts | 94° |
| 2026-05-07 11:39 | 29.66237 | -90.62904 | 5002 ft | 194 kts | 94° |
| 2026-05-07 11:39 | 29.66240 | -90.61352 | 5001 ft | 194 kts | 94° |
| 2026-05-07 11:39 | 29.66243 | -90.59803 | 5001 ft | 194 kts | 94° |
| 2026-05-07 11:40 | 29.66246 | -90.58249 | 5006 ft | 195 kts | 94° |
| 2026-05-07 11:40 | 29.66313 | -90.56646 | 5026 ft | 212 kts | 87° |
| 2026-05-07 11:40 | 29.66596 | -90.54911 | 5016 ft | 228 kts | 79° |
| 2026-05-07 11:40 | 29.66985 | -90.53110 | 5017 ft | 238 kts | 77° |
| 2026-05-07 11:41 | 29.67411 | -90.51235 | 5005 ft | 242 kts | 77° |
| 2026-05-07 11:41 | 29.67848 | -90.49367 | 5007 ft | 244 kts | 75° |
| 2026-05-07 11:41 | 29.68461 | -90.47522 | 5025 ft | 247 kts | 68° |
| 2026-05-07 11:41 | 29.69168 | -90.45736 | 5004 ft | 248 kts | 66° |
| 2026-05-07 11:42 | 29.69910 | -90.43940 | 4991 ft | 247 kts | 65° |
| 2026-05-07 11:42 | 29.70655 | -90.42160 | 4994 ft | 243 kts | 65° |
| 2026-05-07 11:42 | 29.71383 | -90.40430 | 4995 ft | 239 kts | 65° |
| 2026-05-07 11:42 | 29.72091 | -90.38755 | 4972 ft | 226 kts | 65° |
| 2026-05-07 11:43 | 29.72783 | -90.37114 | 4626 ft | 233 kts | 65° |
| 2026-05-07 11:43 | 29.73515 | -90.35430 | 4276 ft | 236 kts | 60° |
| 2026-05-07 11:43 | 29.74502 | -90.33938 | 4111 ft | 230 kts | 46° |
| 2026-05-07 11:43 | 29.75660 | -90.32744 | 4024 ft | 222 kts | 35° |
| 2026-05-07 11:44 | 29.76921 | -90.31778 | 3996 ft | 213 kts | 26° |
| 2026-05-07 11:44 | 29.78240 | -90.31051 | 3984 ft | 206 kts | 17° |
| 2026-05-07 11:44 | 29.79598 | -90.30549 | 3866 ft | 209 kts | 9° |
| 2026-05-07 11:44 | 29.81051 | -90.30208 | 3666 ft | 216 kts | 4° |
| 2026-05-07 11:45 | 29.82572 | -90.29960 | 3381 ft | 225 kts | 2° |
| 2026-05-07 11:45 | 29.84130 | -90.29704 | 3045 ft | 232 kts | 4° |
| 2026-05-07 11:45 | 29.85736 | -90.29343 | 2678 ft | 236 kts | 8° |
| 2026-05-07 11:45 | 29.87221 | -90.28875 | 2425 ft | 206 kts | 13° |
| 2026-05-07 11:46 | 29.88524 | -90.28376 | 2077 ft | 189 kts | 15° |
| 2026-05-07 11:46 | 29.89669 | -90.27937 | 1896 ft | 166 kts | 14° |
| 2026-05-07 11:46 | 29.90783 | -90.27554 | 1668 ft | 167 kts | 12° |
| 2026-05-07 11:46 | 29.91915 | -90.27208 | 1420 ft | 166 kts | 12° |
| 2026-05-07 11:47 | 29.93000 | -90.26910 | 1162 ft | 160 kts | 13° |
| 2026-05-07 11:47 | 29.94082 | -90.26591 | 920 ft | 158 kts | 15° |
| 2026-05-07 11:47 | 29.95113 | -90.26237 | 728 ft | 155 kts | 17° |
| 2026-05-07 11:47 | 29.96148 | -90.25886 | 543 ft | 153 kts | 16° |
| 2026-05-07 11:48 | 29.97166 | -90.25550 | 344 ft | 154 kts | 16° |
| 2026-05-07 11:48 | 29.98200 | -90.25211 | 117 ft | 149 kts | 16° |
| 2026-05-07 11:48 | 29.99090 | -90.24930 | 9 ft | 114 kts | 15° |
| 2026-05-07 11:48 | 29.99553 | -90.24785 | 9 ft | 25 kts | 15° |
| 2026-05-07 11:49 | 29.99764 | -90.24726 | 9 ft | 21 kts | 357° |
| 2026-05-07 11:49 | 29.99795 | -90.24831 | 9 ft | 18 kts | 226° |
| 2026-05-07 11:49 | 29.99663 | -90.24889 | 9 ft | 25 kts | 197° |
| 2026-05-07 11:49 | 29.99527 | -90.24929 | 9 ft | 21 kts | 195° |
| 2026-05-07 11:50 | 29.99416 | -90.24964 | 9 ft | 12 kts | 195° |
| 2026-05-07 11:50 | 29.99326 | -90.24993 | 9 ft | 18 kts | 195° |
| 2026-05-07 11:50 | 29.99198 | -90.25037 | 9 ft | 15 kts | 199° |
| 2026-05-07 11:50 | 29.99063 | -90.25084 | 9 ft | 27 kts | 196° |
| 2026-05-07 11:51 | 29.98950 | -90.25122 | 9 ft | 16 kts | 196° |
| 2026-05-07 11:51 | 29.98822 | -90.25184 | 9 ft | 22 kts | 221° |
| 2026-05-07 11:51 | 29.98765 | -90.25283 | 9 ft | 10 kts | 207° |
| 2026-05-07 11:51 | 29.98722 | -90.25303 | 9 ft | 4 kts | 201° |
| 2026-05-07 11:52 | 29.98715 | -90.25306 | 9 ft | 0 kts | 201° |